Time;durP1;ratioP1;P1;durP2;ratioP2;P2;SDS_P1;SDS_P2;PMS_P1;PMS_P2;Temp;Humidity;BMP_temperature;BMP_pressure;BME280_temperature;BME280_humidity;BME280_pressure;Samples;Min_cycle;Max_cycle;Signal;HPM_P1;HPM_P2
2021/09/25 00:02:01;;;;;;;6.70;4.50;;;17.60;99.90;;;;;;5979218;23;20614;-72
2021/09/25 00:04:31;;;;;;;4.50;3.90;;;17.60;99.90;;;;;;6003812;23;20569;-72
2021/09/25 00:06:57;;;;;;;4.40;3.97;;;17.70;99.90;;;;;;5976247;23;20593;-72
2021/09/25 00:09:22;;;;;;;5.10;3.47;;;17.70;99.90;;;;;;6004887;23;20597;-72
2021/09/25 00:11:48;;;;;;;5.63;4.60;;;17.70;99.90;;;;;;6003262;23;20476;-72
2021/09/25 00:14:13;;;;;;;5.40;4.80;;;17.70;99.90;;;;;;5977434;23;20195;-72
2021/09/25 00:16:39;;;;;;;6.70;4.00;;;17.80;99.90;;;;;;6003298;23;20204;-72
2021/09/25 00:19:04;;;;;;;5.13;3.77;;;17.80;99.90;;;;;;6004952;23;20169;-72
2021/09/25 00:21:32;;;;;;;4.63;3.90;;;17.80;99.90;;;;;;5979567;23;20169;-72
2021/09/25 00:24:03;;;;;;;8.27;4.13;;;17.70;99.90;;;;;;5981897;23;20165;-72
2021/09/25 00:26:36;;;;;;;9.60;5.40;;;17.70;99.90;;;;;;6003562;23;20589;-72
2021/09/25 00:29:09;;;;;;;6.87;4.97;;;17.80;99.90;;;;;;6006035;23;20549;-72
2021/09/25 00:31:37;;;;;;;6.50;4.20;;;17.80;99.90;;;;;;6005676;23;20521;-73
2021/09/25 00:34:02;;;;;;;4.80;4.13;;;17.70;99.90;;;;;;6005628;23;20624;-73
2021/09/25 00:36:28;;;;;;;4.50;3.90;;;17.70;99.90;;;;;;5980390;23;20676;-72
2021/09/25 00:38:53;;;;;;;6.80;4.40;;;17.70;99.90;;;;;;5981452;23;20291;-72
2021/09/25 00:41:21;;;;;;;5.10;3.80;;;17.80;99.90;;;;;;6006854;23;20192;-72
2021/09/25 00:43:49;;;;;;;4.97;3.77;;;17.80;99.90;;;;;;6004390;23;20200;-72
2021/09/25 00:46:17;;;;;;;6.90;4.20;;;17.70;99.90;;;;;;6005784;23;20628;-72
2021/09/25 00:48:45;;;;;;;5.13;4.67;;;17.80;99.90;;;;;;6006831;23;20939;-72
2021/09/25 00:51:10;;;;;;;8.40;4.73;;;17.70;99.90;;;;;;6006208;23;20596;-73
2021/09/25 00:53:36;;;;;;;9.10;5.50;;;17.80;99.90;;;;;;6006181;23;20638;-72
2021/09/25 00:56:02;;;;;;;7.70;5.27;;;17.80;99.90;;;;;;5977766;23;20271;-72
2021/09/25 00:58:29;;;;;;;5.90;5.13;;;17.80;99.90;;;;;;6006661;23;20181;-72
2021/09/25 01:00:54;;;;;;;5.17;4.67;;;17.80;99.90;;;;;;6005469;23;20612;-73
2021/09/25 01:03:20;;;;;;;5.47;4.60;;;17.70;99.90;;;;;;6005335;23;20553;-72
2021/09/25 01:05:45;;;;;;;6.87;5.57;;;17.70;99.90;;;;;;6003973;23;20209;-72
2021/09/25 01:08:12;;;;;;;6.03;5.43;;;17.80;99.90;;;;;;5981207;23;20200;-72
2021/09/25 01:10:39;;;;;;;6.00;4.93;;;17.70;99.90;;;;;;6005746;23;20219;-72
2021/09/25 01:13:07;;;;;;;6.63;5.83;;;17.70;99.90;;;;;;6005098;23;20672;-72
2021/09/25 01:15:33;;;;;;;9.13;5.17;;;17.70;99.90;;;;;;6003502;23;20529;-72
2021/09/25 01:18:01;;;;;;;5.67;5.07;;;17.70;99.90;;;;;;6006093;23;20576;-72
2021/09/25 01:20:27;;;;;;;5.70;4.70;;;17.70;99.90;;;;;;5979734;23;20729;-72
2021/09/25 01:22:52;;;;;;;5.50;4.87;;;17.70;99.90;;;;;;6005739;23;20632;-72
2021/09/25 01:25:18;;;;;;;6.87;5.63;;;17.60;99.90;;;;;;6005150;23;20975;-72
2021/09/25 01:27:44;;;;;;;10.40;5.77;;;17.60;99.90;;;;;;5980614;23;20197;-72
2021/09/25 01:30:13;;;;;;;6.50;5.07;;;17.60;99.90;;;;;;6005151;23;20450;-72
2021/09/25 01:32:39;;;;;;;9.43;5.70;;;17.60;99.90;;;;;;6005033;23;20289;-72
2021/09/25 01:35:06;;;;;;;7.07;5.77;;;17.60;99.90;;;;;;5979644;23;20577;-72
2021/09/25 01:37:39;;;;;;;6.87;5.57;;;17.60;99.90;;;;;;6003185;23;20729;-72
2021/09/25 01:40:06;;;;;;;9.53;5.53;;;17.60;99.90;;;;;;6005350;23;20837;-72
2021/09/25 01:42:32;;;;;;;11.13;6.37;;;17.60;99.90;;;;;;6003926;23;20538;-72
2021/09/25 01:45:01;;;;;;;7.87;4.90;;;17.60;99.90;;;;;;6006869;23;20582;-72
2021/09/25 01:47:29;;;;;;;8.57;4.87;;;17.50;99.90;;;;;;6002989;23;20208;-72
2021/09/25 01:49:59;;;;;;;6.80;5.50;;;17.50;99.90;;;;;;6005306;23;20545;-72
2021/09/25 01:52:25;;;;;;;8.57;5.73;;;17.50;99.90;;;;;;5980817;23;20570;-72
2021/09/25 01:54:53;;;;;;;7.67;6.63;;;17.50;99.90;;;;;;6002914;23;21044;-71
2021/09/25 01:57:18;;;;;;;7.07;6.37;;;17.40;99.90;;;;;;6005130;23;20264;-72
2021/09/25 01:59:47;;;;;;;9.60;6.60;;;17.40;99.90;;;;;;6006213;23;20590;-72
2021/09/25 02:02:16;;;;;;;9.33;6.70;;;17.40;99.90;;;;;;6004371;23;20165;-73
2021/09/25 02:04:47;;;;;;;8.03;6.77;;;17.40;99.90;;;;;;6012230;23;20602;-72
2021/09/25 02:07:16;;;;;;;11.33;7.70;;;17.40;99.90;;;;;;6024967;23;20598;-72
2021/09/25 02:09:44;;;;;;;6.80;6.17;;;17.40;99.90;;;;;;5994783;23;20585;-72
2021/09/25 02:12:10;;;;;;;7.70;7.00;;;17.40;99.90;;;;;;6006088;23;20507;-72
2021/09/25 02:14:37;;;;;;;9.80;7.27;;;17.40;99.90;;;;;;6004644;23;20577;-72
2021/09/25 02:17:03;;;;;;;13.17;6.70;;;17.40;99.90;;;;;;6004547;23;20209;-72
2021/09/25 02:19:28;;;;;;;8.23;7.27;;;17.40;99.90;;;;;;5979546;23;20996;-72
2021/09/25 02:21:56;;;;;;;8.03;7.10;;;17.40;99.90;;;;;;6004406;23;20649;-72
2021/09/25 02:24:28;;;;;;;7.73;6.93;;;17.30;99.90;;;;;;6009383;23;20212;-72
2021/09/25 02:26:53;;;;;;;11.27;8.03;;;17.30;99.90;;;;;;6004999;23;20644;-72
2021/09/25 02:29:21;;;;;;;9.37;8.30;;;17.30;99.90;;;;;;6003964;23;20882;-72
2021/09/25 02:31:49;;;;;;;11.10;8.90;;;17.30;99.90;;;;;;6004888;23;20237;-72
2021/09/25 02:34:15;;;;;;;10.37;8.27;;;17.30;99.90;;;;;;6005785;23;20554;-72
2021/09/25 02:36:40;;;;;;;10.03;8.40;;;17.30;99.90;;;;;;6003120;23;20582;-72
2021/09/25 02:39:06;;;;;;;9.80;7.63;;;17.30;99.90;;;;;;6005081;23;20537;-72
2021/09/25 02:41:32;;;;;;;9.53;8.53;;;17.30;99.90;;;;;;6005267;23;20240;-72
2021/09/25 02:43:57;;;;;;;11.97;9.00;;;17.30;99.90;;;;;;6005237;23;20195;-72
2021/09/25 02:46:23;;;;;;;10.97;8.90;;;17.20;99.90;;;;;;6004533;23;20201;-72
2021/09/25 02:48:51;;;;;;;10.20;9.03;;;17.20;99.90;;;;;;5981317;23;20207;-72
2021/09/25 02:51:16;;;;;;;11.63;8.40;;;17.20;99.90;;;;;;6005882;23;20196;-72
2021/09/25 02:53:43;;;;;;;9.20;8.20;;;17.20;99.90;;;;;;5980725;23;20572;-72
2021/09/25 02:56:09;;;;;;;10.93;9.40;;;17.20;99.90;;;;;;6000855;23;20727;-72
2021/09/25 02:58:35;;;;;;;11.27;9.50;;;17.20;99.90;;;;;;6005431;23;20561;-73
2021/09/25 03:01:03;;;;;;;10.57;8.63;;;17.20;99.90;;;;;;6004864;23;20586;-72
2021/09/25 03:03:28;;;;;;;13.47;9.80;;;17.20;99.90;;;;;;6005356;23;20160;-72
2021/09/25 03:05:54;;;;;;;11.73;9.57;;;17.20;99.90;;;;;;6002744;23;20594;-72
2021/09/25 03:08:24;;;;;;;11.90;10.17;;;17.20;99.90;;;;;;6004811;23;20645;-72
2021/09/25 03:10:50;;;;;;;12.20;10.67;;;17.20;99.90;;;;;;6003954;23;20177;-72
2021/09/25 03:13:18;;;;;;;16.40;10.27;;;17.20;99.90;;;;;;6005126;23;20542;-72
2021/09/25 03:15:44;;;;;;;11.20;10.00;;;17.20;99.90;;;;;;5975915;23;20234;-74
2021/09/25 03:18:09;;;;;;;12.33;10.90;;;17.20;99.90;;;;;;6003704;23;20573;-72
2021/09/25 03:20:35;;;;;;;11.73;10.43;;;17.10;99.90;;;;;;6004658;23;20181;-71
2021/09/25 03:23:03;;;;;;;11.93;10.73;;;17.10;99.90;;;;;;6004674;23;20596;-72
2021/09/25 03:25:28;;;;;;;13.03;11.40;;;17.10;99.90;;;;;;6001720;23;20180;-72
2021/09/25 03:27:56;;;;;;;13.83;11.40;;;17.10;99.90;;;;;;6002902;23;20574;-72
2021/09/25 03:30:25;;;;;;;12.33;11.13;;;17.10;99.90;;;;;;5979159;23;20211;-72
2021/09/25 03:32:51;;;;;;;12.87;11.33;;;17.10;99.90;;;;;;6010511;23;20561;-72
2021/09/25 03:35:19;;;;;;;13.40;11.57;;;17.10;99.90;;;;;;5988402;23;20581;-72
2021/09/25 03:37:44;;;;;;;16.13;12.87;;;17.10;99.90;;;;;;5978828;23;20613;-73
2021/09/25 03:40:11;;;;;;;14.10;12.70;;;17.10;99.90;;;;;;6002094;23;20713;-74
2021/09/25 03:42:36;;;;;;;14.57;11.83;;;17.00;99.90;;;;;;6005268;23;20160;-72
2021/09/25 03:45:05;;;;;;;13.10;11.87;;;17.10;99.90;;;;;;6004263;23;20550;-72
2021/09/25 03:47:33;;;;;;;15.07;12.57;;;17.10;99.90;;;;;;6003201;23;20204;-73
2021/09/25 03:50:04;;;;;;;16.10;12.93;;;17.10;99.90;;;;;;6004210;23;20549;-73
2021/09/25 03:52:37;;;;;;;15.67;13.80;;;17.10;99.90;;;;;;6004323;23;20851;-72
2021/09/25 03:55:05;;;;;;;15.43;13.77;;;17.10;99.90;;;;;;5978281;23;20561;-72
2021/09/25 03:57:30;;;;;;;16.70;13.83;;;17.10;99.90;;;;;;6001316;23;20613;-73
2021/09/25 03:59:56;;;;;;;15.50;13.90;;;17.00;99.90;;;;;;6020711;23;20676;-72
2021/09/25 04:02:21;;;;;;;15.73;13.03;;;17.00;99.90;;;;;;5979568;23;20236;-73
2021/09/25 04:04:47;;;;;;;15.80;14.10;;;17.00;99.90;;;;;;6003971;23;20795;-72
2021/09/25 04:07:12;;;;;;;18.50;14.50;;;17.00;99.90;;;;;;6001846;23;20237;-75
2021/09/25 04:09:38;;;;;;;16.50;14.70;;;17.00;99.90;;;;;;6004103;23;20482;-72
2021/09/25 04:12:03;;;;;;;17.13;15.33;;;17.00;99.90;;;;;;6002752;23;20153;-74
2021/09/25 04:14:29;;;;;;;17.57;13.93;;;17.00;99.90;;;;;;6004198;23;20165;-73
2021/09/25 04:16:55;;;;;;;17.10;13.70;;;17.00;99.90;;;;;;5977519;23;20263;-73
2021/09/25 04:19:20;;;;;;;17.43;14.50;;;17.10;99.90;;;;;;5979771;23;20196;-73
2021/09/25 04:21:49;;;;;;;16.07;13.70;;;17.10;99.90;;;;;;5978807;23;20181;-73
2021/09/25 04:24:15;;;;;;;13.97;12.50;;;17.00;99.90;;;;;;5980066;23;20217;-73
2021/09/25 04:26:43;;;;;;;14.40;13.00;;;17.00;99.90;;;;;;6001790;23;20590;-73
2021/09/25 04:29:09;;;;;;;14.10;12.60;;;17.10;99.90;;;;;;6004262;23;20153;-72
2021/09/25 04:31:35;;;;;;;12.87;11.50;;;17.10;99.90;;;;;;5979399;23;20604;-73
2021/09/25 04:34:04;;;;;;;15.30;11.97;;;17.00;99.90;;;;;;6003821;23;20172;-73
2021/09/25 04:36:32;;;;;;;14.80;13.30;;;17.10;99.90;;;;;;5975205;23;20727;-73
2021/09/25 04:38:59;;;;;;;14.17;12.77;;;17.10;99.90;;;;;;6004184;23;20581;-73
2021/09/25 04:41:27;;;;;;;14.97;13.30;;;17.10;99.90;;;;;;6004799;23;20735;-73
2021/09/25 04:43:53;;;;;;;14.67;13.13;;;17.10;99.90;;;;;;6003396;23;20565;-73
2021/09/25 04:46:18;;;;;;;17.40;15.70;;;17.10;99.90;;;;;;6003686;23;21211;-73
2021/09/25 04:48:48;;;;;;;16.60;14.20;;;17.00;99.90;;;;;;6006346;23;20213;-73
2021/09/25 04:51:14;;;;;;;20.20;17.70;;;17.10;99.90;;;;;;6004338;23;20497;-73
2021/09/25 04:53:42;;;;;;;20.07;17.17;;;17.00;99.90;;;;;;6005944;23;20585;-73
2021/09/25 04:56:08;;;;;;;22.93;17.17;;;17.00;99.90;;;;;;6005625;23;20593;-73
2021/09/25 04:58:33;;;;;;;18.70;16.33;;;17.00;99.90;;;;;;6022310;23;20561;-73
2021/09/25 05:00:59;;;;;;;19.27;17.30;;;17.00;99.90;;;;;;6025627;23;20209;-73
2021/09/25 05:03:24;;;;;;;20.13;17.27;;;17.00;99.90;;;;;;6006051;23;20161;-73
2021/09/25 05:05:51;;;;;;;20.53;18.33;;;17.10;99.90;;;;;;6004020;23;20722;-73
2021/09/25 05:08:16;;;;;;;22.37;20.07;;;17.10;99.90;;;;;;5979060;23;21139;-73
2021/09/25 05:10:44;;;;;;;22.23;19.40;;;17.10;99.90;;;;;;6005544;23;20588;-73
2021/09/25 05:13:09;;;;;;;25.50;20.50;;;17.10;99.90;;;;;;6006046;23;20157;-73
2021/09/25 05:15:35;;;;;;;22.60;19.93;;;17.10;99.90;;;;;;5979278;23;20922;-73
2021/09/25 05:18:03;;;;;;;23.00;20.20;;;17.20;99.90;;;;;;6006619;23;20836;-73
2021/09/25 05:20:33;;;;;;;24.17;20.10;;;17.10;99.90;;;;;;5981884;23;20192;-73
2021/09/25 05:23:01;;;;;;;26.53;21.00;;;17.20;99.90;;;;;;6007715;23;20526;-73
2021/09/25 05:25:34;;;;;;;28.13;21.30;;;17.20;99.90;;;;;;6005926;23;20570;-73
2021/09/25 05:28:03;;;;;;;27.10;21.17;;;17.20;99.90;;;;;;6004605;23;20565;-73
2021/09/25 05:30:31;;;;;;;25.63;21.60;;;17.20;99.90;;;;;;5981452;23;21076;-73
2021/09/25 05:32:57;;;;;;;26.10;20.43;;;17.20;99.90;;;;;;5982455;23;20561;-73
2021/09/25 05:35:25;;;;;;;23.63;20.07;;;17.20;99.90;;;;;;6004639;23;20538;-73
2021/09/25 05:37:52;;;;;;;28.17;22.03;;;17.20;99.90;;;;;;6002667;23;20577;-73
2021/09/25 05:40:18;;;;;;;28.23;21.37;;;17.20;99.90;;;;;;6004639;23;20696;-73
2021/09/25 05:42:43;;;;;;;25.93;21.00;;;17.20;99.90;;;;;;6007365;23;20573;-73
2021/09/25 05:45:12;;;;;;;25.30;20.67;;;17.20;99.90;;;;;;6006853;23;20158;-73
2021/09/25 05:47:37;;;;;;;27.43;22.07;;;17.20;99.90;;;;;;6006478;23;20279;-73
2021/09/25 05:50:04;;;;;;;31.33;23.20;;;17.20;99.90;;;;;;6006712;23;20596;-73
2021/09/25 05:52:32;;;;;;;30.23;21.70;;;17.20;99.90;;;;;;6007283;23;20173;-73
2021/09/25 05:54:57;;;;;;;26.87;22.20;;;17.30;99.90;;;;;;6006957;23;20588;-73
2021/09/25 05:57:23;;;;;;;26.63;22.07;;;17.30;99.90;;;;;;6003581;23;20988;-72
2021/09/25 05:59:51;;;;;;;27.73;21.07;;;17.30;99.90;;;;;;6004152;23;20190;-72
2021/09/25 06:02:16;;;;;;;29.30;21.50;;;17.30;99.90;;;;;;6004512;23;20165;-72
2021/09/25 06:04:45;;;;;;;32.83;21.87;;;17.30;99.90;;;;;;5998971;23;21426;-74
2021/09/25 06:07:11;;;;;;;33.33;22.17;;;17.40;99.90;;;;;;6002002;23;20205;-73
2021/09/25 06:09:37;;;;;;;29.00;22.87;;;17.30;99.90;;;;;;6004238;23;20553;-73
2021/09/25 06:12:04;;;;;;;28.90;21.90;;;17.30;99.90;;;;;;6005317;23;20526;-73
2021/09/25 06:14:30;;;;;;;26.87;22.03;;;17.40;99.90;;;;;;5978737;23;20592;-73
2021/09/25 06:16:56;;;;;;;35.93;21.23;;;17.30;99.90;;;;;;6001570;23;20627;-72
2021/09/25 06:19:24;;;;;;;31.70;22.70;;;17.40;99.90;;;;;;5979683;23;20562;-72
2021/09/25 06:21:49;;;;;;;34.53;22.13;;;17.40;99.90;;;;;;5978569;23;20175;-72
2021/09/25 06:24:15;;;;;;;26.07;21.57;;;17.40;99.90;;;;;;6003953;23;21373;-72
2021/09/25 06:26:41;;;;;;;25.57;20.50;;;17.40;99.90;;;;;;5979449;23;20204;-71
2021/09/25 06:29:06;;;;;;;27.50;20.33;;;17.40;99.90;;;;;;6003688;23;20153;-72
2021/09/25 06:31:33;;;;;;;28.97;20.47;;;17.40;99.90;;;;;;6002808;23;20556;-73
2021/09/25 06:33:59;;;;;;;26.83;20.63;;;17.40;99.90;;;;;;6002208;23;20165;-73
2021/09/25 06:36:24;;;;;;;29.47;19.67;;;17.40;99.90;;;;;;6003995;23;20620;-75
2021/09/25 06:38:50;;;;;;;24.90;17.90;;;17.40;99.90;;;;;;6006552;23;20181;-75
2021/09/25 06:41:17;;;;;;;25.60;19.40;;;17.50;99.90;;;;;;6022764;23;20212;-75
2021/09/25 06:43:43;;;;;;;26.17;17.87;;;17.50;99.90;;;;;;6011952;23;20157;-75
2021/09/25 06:46:09;;;;;;;26.13;19.33;;;17.50;99.90;;;;;;6004039;23;20593;-73
2021/09/25 06:48:35;;;;;;;25.20;19.00;;;17.50;99.90;;;;;;6002140;23;20678;-74
2021/09/25 06:51:00;;;;;;;25.53;19.70;;;17.50;99.90;;;;;;5981777;23;20602;-74
2021/09/25 06:53:26;;;;;;;30.73;19.50;;;17.50;99.90;;;;;;5979059;23;20175;-74
2021/09/25 06:55:51;;;;;;;25.93;19.60;;;17.50;99.90;;;;;;6002449;23;20272;-75
2021/09/25 06:58:17;;;;;;;29.17;19.40;;;17.50;99.90;;;;;;6004659;23;20512;-74
2021/09/25 07:00:47;;;;;;;26.40;18.10;;;17.50;99.90;;;;;;6004590;23;20191;-74
2021/09/25 07:03:12;;;;;;;23.63;18.60;;;17.60;99.90;;;;;;6004499;23;20153;-74
2021/09/25 07:05:38;;;;;;;21.10;17.87;;;17.50;99.90;;;;;;6003192;23;20597;-75
2021/09/25 07:08:04;;;;;;;22.60;18.90;;;17.50;99.90;;;;;;6006220;23;20843;-74
2021/09/25 07:10:30;;;;;;;21.57;17.60;;;17.60;99.90;;;;;;6005569;23;20173;-76
2021/09/25 07:12:55;;;;;;;20.17;15.83;;;17.60;99.90;;;;;;6023149;23;21083;-76
2021/09/25 07:15:21;;;;;;;21.83;16.03;;;17.60;99.90;;;;;;5977837;23;20176;-76
2021/09/25 07:17:47;;;;;;;23.73;16.43;;;17.70;99.90;;;;;;6003345;23;20177;-75
2021/09/25 07:20:15;;;;;;;23.90;15.07;;;17.70;99.90;;;;;;6007073;23;20223;-75
2021/09/25 07:22:41;;;;;;;19.97;15.50;;;17.70;99.90;;;;;;6008744;23;21019;-76
2021/09/25 07:25:07;;;;;;;20.90;15.30;;;17.70;99.90;;;;;;6003229;23;21096;-75
2021/09/25 07:27:32;;;;;;;17.73;15.27;;;17.80;99.90;;;;;;5998175;23;20247;-76
2021/09/25 07:29:58;;;;;;;20.40;14.43;;;17.80;99.90;;;;;;5977741;23;21420;-75
2021/09/25 07:32:23;;;;;;;17.50;14.20;;;17.90;99.90;;;;;;5970205;23;20199;-75
2021/09/25 07:34:49;;;;;;;19.87;15.07;;;17.80;99.90;;;;;;5976309;23;20168;-75
2021/09/25 07:37:15;;;;;;;20.07;14.80;;;17.90;99.90;;;;;;6002217;23;20578;-75
2021/09/25 07:39:40;;;;;;;20.57;13.97;;;17.90;99.90;;;;;;5976612;23;20512;-75
2021/09/25 07:42:06;;;;;;;17.87;13.40;;;17.90;99.90;;;;;;6000337;23;20196;-75
2021/09/25 07:44:32;;;;;;;21.33;14.60;;;18.00;99.90;;;;;;6001645;23;20949;-75
2021/09/25 07:46:58;;;;;;;20.90;14.20;;;18.00;99.90;;;;;;5999720;23;20263;-75
2021/09/25 07:49:23;;;;;;;16.03;13.30;;;17.90;99.90;;;;;;6025185;23;20161;-76
2021/09/25 07:51:49;;;;;;;18.03;13.00;;;18.00;99.90;;;;;;5998068;23;20565;-75
2021/09/25 07:54:14;;;;;;;22.67;13.53;;;18.00;99.90;;;;;;6004740;23;20169;-75
2021/09/25 07:56:40;;;;;;;18.63;13.80;;;18.10;99.90;;;;;;5971657;23;20299;-75
2021/09/25 07:59:06;;;;;;;16.73;12.90;;;18.20;99.90;;;;;;5972909;23;20233;-75
2021/09/25 08:01:31;;;;;;;14.77;12.83;;;18.20;99.90;;;;;;6000639;23;20187;-75
2021/09/25 08:03:57;;;;;;;15.47;12.67;;;18.20;99.90;;;;;;6000015;23;20157;-75
2021/09/25 08:06:22;;;;;;;17.37;13.13;;;18.20;99.90;;;;;;5998648;23;20651;-75
2021/09/25 08:08:50;;;;;;;16.17;13.20;;;18.20;99.90;;;;;;5997368;23;20177;-76
2021/09/25 08:11:16;;;;;;;16.87;12.40;;;18.30;99.90;;;;;;5997991;23;20181;-75
2021/09/25 08:13:42;;;;;;;20.87;12.70;;;18.40;99.90;;;;;;5974098;23;20895;-76
2021/09/25 08:16:10;;;;;;;16.57;12.60;;;18.40;99.90;;;;;;5972724;23;20205;-75
2021/09/25 08:18:36;;;;;;;14.63;11.77;;;18.50;99.90;;;;;;5974899;23;20636;-76
2021/09/25 08:21:02;;;;;;;14.90;12.47;;;18.50;99.90;;;;;;5999703;23;20624;-75
2021/09/25 08:23:27;;;;;;;17.63;13.07;;;18.50;99.90;;;;;;5999488;23;20554;-75
2021/09/25 08:25:53;;;;;;;15.17;12.80;;;18.60;99.90;;;;;;5972264;23;20609;-75
2021/09/25 08:28:19;;;;;;;18.33;12.93;;;18.60;99.90;;;;;;5972633;23;20271;-75
2021/09/25 08:30:45;;;;;;;15.87;12.47;;;18.60;99.90;;;;;;5992948;23;20165;-75
2021/09/25 08:33:11;;;;;;;16.10;12.53;;;18.60;99.90;;;;;;5996020;23;20618;-75
2021/09/25 08:35:37;;;;;;;15.83;12.10;;;18.70;99.90;;;;;;5998350;23;20169;-75
2021/09/25 08:38:02;;;;;;;16.03;12.50;;;18.70;99.90;;;;;;5975121;23;20188;-74
2021/09/25 08:40:28;;;;;;;15.90;13.20;;;18.70;99.90;;;;;;6002112;23;20196;-74
2021/09/25 08:42:54;;;;;;;17.37;13.70;;;18.70;99.90;;;;;;5980070;23;20169;-74
2021/09/25 08:45:22;;;;;;;17.63;13.83;;;18.70;99.90;;;;;;5979048;23;21091;-73
2021/09/25 08:47:47;;;;;;;15.40;13.17;;;18.70;99.90;;;;;;5975036;23;20585;-72
2021/09/25 08:50:15;;;;;;;14.77;12.87;;;18.70;99.90;;;;;;6002983;23;20556;-73
2021/09/25 08:52:41;;;;;;;16.17;13.17;;;18.70;99.90;;;;;;6002726;23;20167;-72
2021/09/25 08:55:08;;;;;;;19.60;14.10;;;18.60;99.90;;;;;;6000428;23;21099;-73
2021/09/25 08:57:34;;;;;;;16.13;12.77;;;18.70;99.90;;;;;;6003308;23;20633;-73
2021/09/25 09:00:25;;;;;;;14.27;12.73;;;18.70;99.90;;;;;;5999842;23;20653;-73
2021/09/25 09:02:51;;;;;;;13.10;11.80;;;18.80;99.90;;;;;;6004302;23;21301;-73
2021/09/25 09:05:32;;;;;;;16.20;12.47;;;18.80;99.90;;;;;;6003907;23;21167;-72
2021/09/25 09:08:02;;;;;;;15.53;13.50;;;18.80;99.90;;;;;;6003156;23;20687;-75
2021/09/25 09:10:35;;;;;;;16.47;13.50;;;18.80;99.90;;;;;;6002532;23;20573;-76
2021/09/25 09:13:03;;;;;;;14.37;12.87;;;18.80;99.90;;;;;;6003894;23;20510;-76
2021/09/25 09:15:37;;;;;;;14.50;12.60;;;18.90;99.90;;;;;;6000159;23;20958;-74
2021/09/25 09:18:04;;;;;;;14.10;12.70;;;18.90;99.90;;;;;;6001896;23;20584;-72
2021/09/25 09:20:35;;;;;;;14.90;12.00;;;19.10;99.90;;;;;;5977055;23;20618;-73
2021/09/25 09:23:18;;;;;;;15.10;12.60;;;19.10;99.90;;;;;;5998905;23;20549;-73
2021/09/25 09:25:46;;;;;;;15.50;13.37;;;19.20;99.90;;;;;;6002705;23;20684;-73
2021/09/25 09:28:32;;;;;;;15.80;12.97;;;19.20;99.90;;;;;;6004875;23;20617;-75
2021/09/25 09:31:01;;;;;;;15.33;13.63;;;19.20;99.90;;;;;;6004225;23;20616;-76
2021/09/25 09:33:45;;;;;;;16.93;12.53;;;19.30;99.90;;;;;;6004754;23;21096;-76
2021/09/25 09:36:23;;;;;;;15.30;13.80;;;19.40;99.90;;;;;;5982581;23;20590;-75
2021/09/25 09:39:10;;;;;;;17.23;13.70;;;19.40;99.90;;;;;;5984086;23;20625;-77
2021/09/25 09:41:44;;;;;;;19.43;12.10;;;19.50;99.90;;;;;;5982175;23;20620;-76
2021/09/25 09:44:15;;;;;;;14.73;13.13;;;19.50;99.90;;;;;;6004948;23;20502;-75
2021/09/25 09:46:46;;;;;;;15.93;13.30;;;19.50;99.90;;;;;;6002131;23;20625;-75
2021/09/25 09:49:20;;;;;;;14.10;12.70;;;19.60;99.90;;;;;;6005971;23;20510;-76
2021/09/25 09:51:53;;;;;;;14.30;12.90;;;19.60;99.90;;;;;;6006148;23;21198;-75
2021/09/25 09:54:24;;;;;;;14.50;12.50;;;19.60;99.90;;;;;;6005148;23;20514;-75
2021/09/25 09:56:53;;;;;;;13.47;12.17;;;19.60;99.90;;;;;;6003612;23;20674;-73
2021/09/25 09:59:18;;;;;;;14.20;12.57;;;19.70;99.90;;;;;;6002316;23;20601;-73
2021/09/25 10:01:45;;;;;;;14.10;12.70;;;19.80;99.90;;;;;;5976800;23;20609;-70
2021/09/25 10:04:12;;;;;;;15.10;12.00;;;19.60;99.90;;;;;;5978492;23;20172;-73
2021/09/25 10:06:39;;;;;;;12.67;11.47;;;19.70;99.90;;;;;;6000602;23;20594;-74
2021/09/25 10:09:12;;;;;;;13.53;11.40;;;19.70;99.90;;;;;;6000962;23;20534;-73
2021/09/25 10:11:42;;;;;;;11.93;10.63;;;19.80;99.90;;;;;;5999948;23;21084;-73
2021/09/25 10:14:09;;;;;;;11.87;10.60;;;19.80;99.90;;;;;;5999142;23;20884;-73
2021/09/25 10:16:35;;;;;;;13.13;10.07;;;19.80;99.90;;;;;;5997224;23;20601;-73
2021/09/25 10:19:03;;;;;;;12.30;10.80;;;19.90;99.90;;;;;;5999945;23;20534;-73
2021/09/25 10:21:33;;;;;;;13.93;10.70;;;20.00;99.90;;;;;;6000773;23;20603;-73
2021/09/25 10:24:08;;;;;;;11.37;9.67;;;20.10;99.90;;;;;;6005624;23;21228;-73
2021/09/25 10:26:35;;;;;;;12.53;10.30;;;20.10;99.90;;;;;;5980534;23;20604;-73
2021/09/25 10:29:04;;;;;;;11.73;10.23;;;19.90;99.90;;;;;;6004229;23;20930;-73
2021/09/25 10:31:33;;;;;;;11.40;10.27;;;19.80;99.90;;;;;;5978805;23;20581;-74
2021/09/25 10:34:06;;;;;;;14.93;10.70;;;19.80;99.90;;;;;;6003652;23;20945;-75
2021/09/25 10:36:47;;;;;;;11.03;9.77;;;19.90;99.90;;;;;;6004582;23;20601;-74
2021/09/25 10:39:36;;;;;;;11.57;9.70;;;19.90;99.90;;;;;;5981339;23;20581;-74
2021/09/25 10:42:10;;;;;;;14.30;9.03;;;20.00;99.90;;;;;;5980916;23;20705;-74
2021/09/25 10:44:54;;;;;;;13.37;9.80;;;20.10;99.90;;;;;;6020222;23;20531;-74
2021/09/25 10:47:22;;;;;;;13.10;9.40;;;20.10;99.90;;;;;;6017786;23;20639;-75
2021/09/25 10:49:56;;;;;;;12.83;10.10;;;20.20;99.90;;;;;;5978799;23;20604;-73
2021/09/25 10:52:39;;;;;;;10.47;9.37;;;20.30;99.90;;;;;;6008783;23;20514;-73
2021/09/25 10:55:17;;;;;;;16.70;9.70;;;20.40;99.90;;;;;;6003849;23;20507;-73
2021/09/25 10:57:43;;;;;;;10.97;9.97;;;20.50;99.90;;;;;;6001046;23;20605;-73
2021/09/25 11:00:22;;;;;;;10.43;9.10;;;20.50;99.90;;;;;;6003496;23;20585;-74
2021/09/25 11:02:48;;;;;;;11.90;9.70;;;20.60;99.90;;;;;;5999633;23;20157;-76
2021/09/25 11:05:37;;;;;;;9.40;8.50;;;20.50;99.90;;;;;;6000176;23;20530;-75
2021/09/25 11:08:15;;;;;;;10.00;9.00;;;20.50;99.90;;;;;;5999140;23;20697;-74
2021/09/25 11:11:03;;;;;;;11.23;9.43;;;20.60;99.90;;;;;;6000430;23;21154;-73
2021/09/25 11:14:08;;;;;;;9.97;8.97;;;20.70;99.90;;;;;;5998475;23;20530;-76
2021/09/25 11:16:59;;;;;;;11.47;9.00;;;20.70;99.90;;;;;;5976393;23;21367;-76
2021/09/25 11:19:25;;;;;;;11.03;9.00;;;20.90;99.90;;;;;;5987532;23;20633;-76
2021/09/25 11:22:01;;;;;;;12.27;8.80;;;20.90;99.90;;;;;;6007143;23;20573;-75
2021/09/25 11:24:32;;;;;;;10.20;8.87;;;20.90;99.90;;;;;;6002141;23;20133;-76
2021/09/25 11:26:59;;;;;;;9.30;8.40;;;21.00;99.90;;;;;;5976519;23;20601;-76
2021/09/25 11:29:25;;;;;;;9.03;8.13;;;21.10;99.90;;;;;;6004030;23;20554;-77
2021/09/25 11:32:02;;;;;;;10.73;9.33;;;21.30;99.90;;;;;;6002895;23;20534;-76
2021/09/25 11:34:30;;;;;;;8.97;8.07;;;21.40;99.90;;;;;;6004937;23;20504;-77
2021/09/25 11:36:59;;;;;;;9.87;8.70;;;21.50;99.90;;;;;;6002980;23;21381;-76
2021/09/25 11:39:38;;;;;;;11.67;8.33;;;21.60;99.90;;;;;;6003798;23;20548;-75
2021/09/25 11:42:07;;;;;;;8.90;8.20;;;21.70;99.90;;;;;;6003681;23;20514;-75
2021/09/25 11:44:59;;;;;;;9.33;8.17;;;21.70;99.90;;;;;;5978188;23;20656;-75
2021/09/25 11:47:27;;;;;;;10.30;9.40;;;21.60;99.90;;;;;;6003078;23;20957;-75
2021/09/25 11:49:55;;;;;;;9.20;8.30;;;21.60;99.90;;;;;;6004000;23;20616;-75
2021/09/25 11:52:23;;;;;;;8.47;7.67;;;21.50;99.90;;;;;;6003320;23;20568;-75
2021/09/25 11:54:49;;;;;;;10.60;8.90;;;21.60;99.90;;;;;;6003973;23;20581;-75
2021/09/25 11:57:21;;;;;;;9.43;8.53;;;21.60;99.90;;;;;;6004042;23;20600;-76
2021/09/25 11:59:47;;;;;;;8.47;7.77;;;21.60;99.90;;;;;;6003554;23;20596;-74
2021/09/25 12:02:39;;;;;;;9.57;8.57;;;21.70;99.90;;;;;;6001179;23;20534;-75
2021/09/25 12:05:07;;;;;;;8.63;7.83;;;21.70;99.90;;;;;;6002148;23;20157;-76
2021/09/25 12:07:45;;;;;;;8.23;7.53;;;21.60;99.90;;;;;;6001496;23;20739;-76
2021/09/25 12:10:27;;;;;;;11.77;8.37;;;21.60;99.90;;;;;;5999820;23;20587;-76
2021/09/25 12:12:59;;;;;;;9.20;8.30;;;21.60;99.90;;;;;;5979272;23;20569;-76
2021/09/25 12:15:32;;;;;;;9.83;8.93;;;21.60;99.90;;;;;;6003681;23;20952;-76
2021/09/25 12:18:22;;;;;;;9.77;8.10;;;21.70;99.90;;;;;;6006290;23;20673;-76
2021/09/25 12:20:58;;;;;;;9.27;8.50;;;21.70;99.90;;;;;;6024822;23;20629;-76
2021/09/25 12:23:29;;;;;;;9.80;8.80;;;21.80;99.90;;;;;;6027545;23;20592;-76
2021/09/25 12:25:56;;;;;;;10.03;8.97;;;21.80;99.90;;;;;;6018934;23;20656;-76
2021/09/25 12:28:45;;;;;;;10.13;9.13;;;21.80;99.90;;;;;;5981646;23;20605;-72
2021/09/25 12:31:34;;;;;;;8.50;7.70;;;21.80;99.90;;;;;;5983815;23;20577;-76
2021/09/25 12:34:02;;;;;;;7.90;7.27;;;21.90;99.90;;;;;;6004689;23;20593;-76
2021/09/25 12:36:31;;;;;;;8.37;7.57;;;21.90;99.90;;;;;;6006491;23;20657;-76
2021/09/25 12:39:11;;;;;;;9.03;8.03;;;22.00;99.90;;;;;;6006265;23;21077;-76
2021/09/25 12:41:42;;;;;;;8.87;7.70;;;22.10;99.90;;;;;;6006428;23;20608;-76